sensor_id;sensor_type;location;lat;lon;timestamp;P1;durP1;ratioP1;P2;durP2;ratioP2
74674;SDS011;63200;48.810;12.352;2024-01-11T00:01:38;47.27;;;16.53;;
74674;SDS011;63200;48.810;12.352;2024-01-11T00:04:03;51.10;;;17.80;;
74674;SDS011;63200;48.810;12.352;2024-01-11T00:06:28;44.37;;;17.57;;
74674;SDS011;63200;48.810;12.352;2024-01-11T00:08:54;50.13;;;18.10;;
74674;SDS011;63200;48.810;12.352;2024-01-11T00:11:19;42.07;;;16.30;;
74674;SDS011;63200;48.810;12.352;2024-01-11T00:13:45;47.60;;;17.13;;
74674;SDS011;63200;48.810;12.352;2024-01-11T00:16:10;45.47;;;16.40;;
74674;SDS011;63200;48.810;12.352;2024-01-11T00:18:35;41.47;;;15.53;;
74674;SDS011;63200;48.810;12.352;2024-01-11T00:21:00;43.50;;;16.03;;
74674;SDS011;63200;48.810;12.352;2024-01-11T00:23:26;54.87;;;17.10;;
74674;SDS011;63200;48.810;12.352;2024-01-11T00:25:51;42.20;;;16.03;;
74674;SDS011;63200;48.810;12.352;2024-01-11T00:28:16;39.10;;;15.57;;
74674;SDS011;63200;48.810;12.352;2024-01-11T00:30:41;45.93;;;16.50;;
74674;SDS011;63200;48.810;12.352;2024-01-11T00:33:07;51.23;;;16.67;;
74674;SDS011;63200;48.810;12.352;2024-01-11T00:35:32;46.93;;;15.60;;
74674;SDS011;63200;48.810;12.352;2024-01-11T00:37:57;46.70;;;15.13;;
74674;SDS011;63200;48.810;12.352;2024-01-11T00:40:23;47.27;;;16.73;;
74674;SDS011;63200;48.810;12.352;2024-01-11T00:42:48;43.13;;;16.03;;
74674;SDS011;63200;48.810;12.352;2024-01-11T00:45:13;41.83;;;15.77;;
74674;SDS011;63200;48.810;12.352;2024-01-11T00:47:39;45.10;;;16.50;;
74674;SDS011;63200;48.810;12.352;2024-01-11T00:50:04;51.30;;;16.53;;
74674;SDS011;63200;48.810;12.352;2024-01-11T00:52:30;46.70;;;16.10;;
74674;SDS011;63200;48.810;12.352;2024-01-11T00:54:55;41.50;;;15.13;;
74674;SDS011;63200;48.810;12.352;2024-01-11T00:57:20;42.90;;;15.10;;
74674;SDS011;63200;48.810;12.352;2024-01-11T00:59:46;45.67;;;16.33;;
74674;SDS011;63200;48.810;12.352;2024-01-11T01:02:11;43.37;;;15.57;;
74674;SDS011;63200;48.810;12.352;2024-01-11T01:04:39;50.17;;;16.67;;
74674;SDS011;63200;48.810;12.352;2024-01-11T01:07:05;48.50;;;17.30;;
74674;SDS011;63200;48.810;12.352;2024-01-11T01:09:30;42.17;;;15.77;;
74674;SDS011;63200;48.810;12.352;2024-01-11T01:11:56;49.10;;;16.90;;
74674;SDS011;63200;48.810;12.352;2024-01-11T01:14:21;49.20;;;16.97;;
74674;SDS011;63200;48.810;12.352;2024-01-11T01:16:46;43.97;;;16.23;;
74674;SDS011;63200;48.810;12.352;2024-01-11T01:19:12;44.73;;;17.00;;
74674;SDS011;63200;48.810;12.352;2024-01-11T01:21:37;47.30;;;16.47;;
74674;SDS011;63200;48.810;12.352;2024-01-11T01:24:02;41.70;;;16.70;;
74674;SDS011;63200;48.810;12.352;2024-01-11T01:26:28;49.60;;;17.23;;
74674;SDS011;63200;48.810;12.352;2024-01-11T01:28:53;43.10;;;15.57;;
74674;SDS011;63200;48.810;12.352;2024-01-11T01:31:20;48.83;;;17.10;;
74674;SDS011;63200;48.810;12.352;2024-01-11T01:33:46;40.07;;;16.57;;
74674;SDS011;63200;48.810;12.352;2024-01-11T01:36:11;48.73;;;16.60;;
74674;SDS011;63200;48.810;12.352;2024-01-11T01:38:37;44.40;;;16.53;;
74674;SDS011;63200;48.810;12.352;2024-01-11T01:41:02;49.03;;;17.60;;
74674;SDS011;63200;48.810;12.352;2024-01-11T01:43:27;44.17;;;16.37;;
74674;SDS011;63200;48.810;12.352;2024-01-11T01:45:53;47.00;;;16.67;;
74674;SDS011;63200;48.810;12.352;2024-01-11T01:48:19;52.27;;;17.20;;
74674;SDS011;63200;48.810;12.352;2024-01-11T01:50:44;49.13;;;16.60;;
74674;SDS011;63200;48.810;12.352;2024-01-11T01:53:15;48.97;;;15.90;;
74674;SDS011;63200;48.810;12.352;2024-01-11T01:55:42;49.53;;;16.10;;
74674;SDS011;63200;48.810;12.352;2024-01-11T01:58:08;45.33;;;15.93;;
74674;SDS011;63200;48.810;12.352;2024-01-11T02:00:33;46.07;;;16.43;;
74674;SDS011;63200;48.810;12.352;2024-01-11T02:02:58;44.90;;;15.57;;
74674;SDS011;63200;48.810;12.352;2024-01-11T02:05:24;47.03;;;17.00;;
74674;SDS011;63200;48.810;12.352;2024-01-11T02:07:49;40.93;;;14.97;;
74674;SDS011;63200;48.810;12.352;2024-01-11T02:10:15;39.90;;;16.27;;
74674;SDS011;63200;48.810;12.352;2024-01-11T02:12:41;46.33;;;17.60;;
74674;SDS011;63200;48.810;12.352;2024-01-11T02:15:07;46.90;;;16.90;;
74674;SDS011;63200;48.810;12.352;2024-01-11T02:17:32;43.17;;;15.23;;
74674;SDS011;63200;48.810;12.352;2024-01-11T02:19:58;42.23;;;15.27;;
74674;SDS011;63200;48.810;12.352;2024-01-11T02:22:24;43.37;;;16.60;;
74674;SDS011;63200;48.810;12.352;2024-01-11T02:25:03;49.97;;;16.87;;
74674;SDS011;63200;48.810;12.352;2024-01-11T02:27:28;43.43;;;16.27;;
74674;SDS011;63200;48.810;12.352;2024-01-11T02:29:54;49.93;;;16.90;;
74674;SDS011;63200;48.810;12.352;2024-01-11T02:32:19;51.10;;;15.53;;
74674;SDS011;63200;48.810;12.352;2024-01-11T02:34:45;48.40;;;15.97;;
74674;SDS011;63200;48.810;12.352;2024-01-11T02:37:11;43.53;;;15.40;;
74674;SDS011;63200;48.810;12.352;2024-01-11T02:39:37;43.03;;;16.57;;
74674;SDS011;63200;48.810;12.352;2024-01-11T02:42:02;44.67;;;15.80;;
74674;SDS011;63200;48.810;12.352;2024-01-11T02:44:28;48.77;;;16.63;;
74674;SDS011;63200;48.810;12.352;2024-01-11T02:46:53;48.47;;;16.57;;
74674;SDS011;63200;48.810;12.352;2024-01-11T02:49:19;47.03;;;17.47;;
74674;SDS011;63200;48.810;12.352;2024-01-11T02:51:44;46.57;;;16.50;;
74674;SDS011;63200;48.810;12.352;2024-01-11T02:54:09;46.30;;;16.90;;
74674;SDS011;63200;48.810;12.352;2024-01-11T02:56:35;45.17;;;16.93;;
74674;SDS011;63200;48.810;12.352;2024-01-11T02:59:00;44.80;;;16.60;;
74674;SDS011;63200;48.810;12.352;2024-01-11T03:01:25;44.30;;;16.43;;
74674;SDS011;63200;48.810;12.352;2024-01-11T03:03:51;49.80;;;17.70;;
74674;SDS011;63200;48.810;12.352;2024-01-11T03:06:16;47.47;;;17.20;;
74674;SDS011;63200;48.810;12.352;2024-01-11T03:08:46;48.17;;;17.53;;
74674;SDS011;63200;48.810;12.352;2024-01-11T03:11:12;51.87;;;18.43;;
74674;SDS011;63200;48.810;12.352;2024-01-11T03:13:37;53.37;;;18.33;;
74674;SDS011;63200;48.810;12.352;2024-01-11T03:16:02;50.00;;;17.73;;
74674;SDS011;63200;48.810;12.352;2024-01-11T03:18:29;51.30;;;18.17;;
74674;SDS011;63200;48.810;12.352;2024-01-11T03:20:56;47.07;;;17.73;;
74674;SDS011;63200;48.810;12.352;2024-01-11T03:23:21;48.80;;;17.43;;
74674;SDS011;63200;48.810;12.352;2024-01-11T03:25:46;46.77;;;17.70;;
74674;SDS011;63200;48.810;12.352;2024-01-11T03:28:12;45.17;;;16.40;;
74674;SDS011;63200;48.810;12.352;2024-01-11T03:30:38;49.63;;;17.63;;
74674;SDS011;63200;48.810;12.352;2024-01-11T03:33:03;47.40;;;17.63;;
74674;SDS011;63200;48.810;12.352;2024-01-11T03:35:29;47.23;;;16.10;;
74674;SDS011;63200;48.810;12.352;2024-01-11T03:37:54;51.40;;;17.77;;
74674;SDS011;63200;48.810;12.352;2024-01-11T03:40:19;52.63;;;16.27;;
74674;SDS011;63200;48.810;12.352;2024-01-11T03:42:45;45.33;;;15.97;;
74674;SDS011;63200;48.810;12.352;2024-01-11T03:45:10;45.50;;;15.10;;
74674;SDS011;63200;48.810;12.352;2024-01-11T03:47:35;42.87;;;15.10;;
74674;SDS011;63200;48.810;12.352;2024-01-11T03:50:01;51.13;;;18.20;;
74674;SDS011;63200;48.810;12.352;2024-01-11T03:52:26;47.27;;;15.93;;
74674;SDS011;63200;48.810;12.352;2024-01-11T03:54:52;46.93;;;17.20;;
74674;SDS011;63200;48.810;12.352;2024-01-11T03:57:17;54.27;;;18.07;;
74674;SDS011;63200;48.810;12.352;2024-01-11T03:59:43;44.23;;;15.40;;
74674;SDS011;63200;48.810;12.352;2024-01-11T04:02:08;52.40;;;17.60;;
74674;SDS011;63200;48.810;12.352;2024-01-11T04:04:34;43.77;;;16.60;;
74674;SDS011;63200;48.810;12.352;2024-01-11T04:06:59;48.97;;;16.43;;
74674;SDS011;63200;48.810;12.352;2024-01-11T04:09:24;48.17;;;17.33;;
74674;SDS011;63200;48.810;12.352;2024-01-11T04:11:50;54.50;;;17.83;;
74674;SDS011;63200;48.810;12.352;2024-01-11T04:14:15;43.07;;;16.13;;
74674;SDS011;63200;48.810;12.352;2024-01-11T04:16:41;47.00;;;16.97;;
74674;SDS011;63200;48.810;12.352;2024-01-11T04:19:09;46.50;;;17.23;;
74674;SDS011;63200;48.810;12.352;2024-01-11T04:21:35;51.90;;;17.43;;
74674;SDS011;63200;48.810;12.352;2024-01-11T04:24:03;48.60;;;17.93;;
74674;SDS011;63200;48.810;12.352;2024-01-11T04:26:28;49.20;;;17.13;;
74674;SDS011;63200;48.810;12.352;2024-01-11T04:28:54;56.80;;;19.10;;
74674;SDS011;63200;48.810;12.352;2024-01-11T04:31:19;54.47;;;19.00;;
74674;SDS011;63200;48.810;12.352;2024-01-11T04:33:45;52.67;;;17.40;;
74674;SDS011;63200;48.810;12.352;2024-01-11T04:36:11;48.23;;;17.93;;
74674;SDS011;63200;48.810;12.352;2024-01-11T04:38:37;52.13;;;18.63;;
74674;SDS011;63200;48.810;12.352;2024-01-11T04:41:12;51.70;;;17.87;;
74674;SDS011;63200;48.810;12.352;2024-01-11T04:43:38;48.53;;;17.33;;
74674;SDS011;63200;48.810;12.352;2024-01-11T04:46:17;53.03;;;19.13;;
74674;SDS011;63200;48.810;12.352;2024-01-11T04:48:44;42.47;;;15.97;;
74674;SDS011;63200;48.810;12.352;2024-01-11T04:51:11;39.53;;;15.83;;
74674;SDS011;63200;48.810;12.352;2024-01-11T04:53:40;53.10;;;18.07;;
74674;SDS011;63200;48.810;12.352;2024-01-11T04:56:07;54.77;;;18.90;;
74674;SDS011;63200;48.810;12.352;2024-01-11T04:58:34;45.10;;;16.97;;
74674;SDS011;63200;48.810;12.352;2024-01-11T05:01:11;48.03;;;16.33;;
74674;SDS011;63200;48.810;12.352;2024-01-11T05:03:41;54.77;;;18.87;;
74674;SDS011;63200;48.810;12.352;2024-01-11T05:06:06;48.87;;;16.40;;
74674;SDS011;63200;48.810;12.352;2024-01-11T05:08:32;45.07;;;16.87;;
74674;SDS011;63200;48.810;12.352;2024-01-11T05:10:58;43.83;;;16.87;;
74674;SDS011;63200;48.810;12.352;2024-01-11T05:13:23;53.60;;;18.27;;
74674;SDS011;63200;48.810;12.352;2024-01-11T05:15:49;46.43;;;17.10;;
74674;SDS011;63200;48.810;12.352;2024-01-11T05:18:14;52.43;;;17.67;;
74674;SDS011;63200;48.810;12.352;2024-01-11T05:20:40;47.70;;;17.03;;
74674;SDS011;63200;48.810;12.352;2024-01-11T05:23:05;50.17;;;18.67;;
74674;SDS011;63200;48.810;12.352;2024-01-11T05:25:31;42.30;;;16.53;;
74674;SDS011;63200;48.810;12.352;2024-01-11T05:28:03;51.13;;;18.20;;
74674;SDS011;63200;48.810;12.352;2024-01-11T05:30:29;46.23;;;16.43;;
74674;SDS011;63200;48.810;12.352;2024-01-11T05:32:54;45.17;;;15.60;;
74674;SDS011;63200;48.810;12.352;2024-01-11T05:35:20;44.43;;;15.97;;
74674;SDS011;63200;48.810;12.352;2024-01-11T05:37:46;50.37;;;16.80;;
74674;SDS011;63200;48.810;12.352;2024-01-11T05:40:12;53.63;;;17.87;;
74674;SDS011;63200;48.810;12.352;2024-01-11T05:42:37;48.77;;;18.63;;
74674;SDS011;63200;48.810;12.352;2024-01-11T05:45:06;54.40;;;17.63;;
74674;SDS011;63200;48.810;12.352;2024-01-11T05:47:31;49.83;;;17.27;;
74674;SDS011;63200;48.810;12.352;2024-01-11T05:49:57;49.00;;;17.67;;
74674;SDS011;63200;48.810;12.352;2024-01-11T05:52:22;51.53;;;18.07;;
74674;SDS011;63200;48.810;12.352;2024-01-11T05:54:47;48.73;;;17.93;;
74674;SDS011;63200;48.810;12.352;2024-01-11T05:57:13;51.30;;;18.47;;
74674;SDS011;63200;48.810;12.352;2024-01-11T05:59:43;48.17;;;18.17;;
74674;SDS011;63200;48.810;12.352;2024-01-11T06:02:08;50.43;;;18.43;;
74674;SDS011;63200;48.810;12.352;2024-01-11T06:04:34;49.90;;;18.97;;
74674;SDS011;63200;48.810;12.352;2024-01-11T06:06:59;61.10;;;19.50;;
74674;SDS011;63200;48.810;12.352;2024-01-11T06:09:24;45.20;;;19.07;;
74674;SDS011;63200;48.810;12.352;2024-01-11T06:11:49;53.17;;;18.90;;
74674;SDS011;63200;48.810;12.352;2024-01-11T06:14:15;47.10;;;17.67;;
74674;SDS011;63200;48.810;12.352;2024-01-11T06:16:40;50.37;;;18.50;;
74674;SDS011;63200;48.810;12.352;2024-01-11T06:19:05;55.87;;;18.00;;
74674;SDS011;63200;48.810;12.352;2024-01-11T06:21:32;54.57;;;18.40;;
74674;SDS011;63200;48.810;12.352;2024-01-11T06:23:58;53.37;;;18.40;;
74674;SDS011;63200;48.810;12.352;2024-01-11T06:26:23;49.37;;;18.13;;
74674;SDS011;63200;48.810;12.352;2024-01-11T06:28:48;51.57;;;17.60;;
74674;SDS011;63200;48.810;12.352;2024-01-11T06:31:14;48.37;;;17.70;;
74674;SDS011;63200;48.810;12.352;2024-01-11T06:33:39;44.00;;;17.20;;
74674;SDS011;63200;48.810;12.352;2024-01-11T06:36:05;45.97;;;15.80;;
74674;SDS011;63200;48.810;12.352;2024-01-11T06:38:32;50.97;;;17.13;;
74674;SDS011;63200;48.810;12.352;2024-01-11T06:40:57;51.60;;;17.60;;
74674;SDS011;63200;48.810;12.352;2024-01-11T06:43:23;53.53;;;19.30;;
74674;SDS011;63200;48.810;12.352;2024-01-11T06:45:48;49.80;;;16.63;;
74674;SDS011;63200;48.810;12.352;2024-01-11T06:48:13;53.93;;;19.47;;
74674;SDS011;63200;48.810;12.352;2024-01-11T06:50:38;56.00;;;19.93;;
74674;SDS011;63200;48.810;12.352;2024-01-11T06:53:04;56.63;;;19.00;;
74674;SDS011;63200;48.810;12.352;2024-01-11T06:55:29;53.77;;;18.60;;
74674;SDS011;63200;48.810;12.352;2024-01-11T06:57:55;57.13;;;19.17;;
74674;SDS011;63200;48.810;12.352;2024-01-11T07:00:20;56.03;;;19.20;;
74674;SDS011;63200;48.810;12.352;2024-01-11T07:02:46;47.13;;;16.67;;
74674;SDS011;63200;48.810;12.352;2024-01-11T07:05:12;41.20;;;15.10;;
74674;SDS011;63200;48.810;12.352;2024-01-11T07:07:37;51.53;;;18.17;;
74674;SDS011;63200;48.810;12.352;2024-01-11T07:10:02;55.97;;;19.03;;
74674;SDS011;63200;48.810;12.352;2024-01-11T07:12:30;58.03;;;19.13;;
74674;SDS011;63200;48.810;12.352;2024-01-11T07:14:55;54.60;;;19.03;;
74674;SDS011;63200;48.810;12.352;2024-01-11T07:17:21;65.33;;;20.07;;
74674;SDS011;63200;48.810;12.352;2024-01-11T07:19:47;64.30;;;19.90;;
74674;SDS011;63200;48.810;12.352;2024-01-11T07:22:13;64.50;;;22.40;;
74674;SDS011;63200;48.810;12.352;2024-01-11T07:24:38;62.33;;;20.47;;
74674;SDS011;63200;48.810;12.352;2024-01-11T07:27:04;71.00;;;22.90;;
74674;SDS011;63200;48.810;12.352;2024-01-11T07:29:30;65.50;;;20.33;;
74674;SDS011;63200;48.810;12.352;2024-01-11T07:31:56;53.30;;;18.00;;
74674;SDS011;63200;48.810;12.352;2024-01-11T07:34:21;51.57;;;19.43;;
74674;SDS011;63200;48.810;12.352;2024-01-11T07:36:46;67.10;;;21.23;;
74674;SDS011;63200;48.810;12.352;2024-01-11T07:39:12;59.87;;;20.87;;
74674;SDS011;63200;48.810;12.352;2024-01-11T07:41:37;56.43;;;19.97;;
74674;SDS011;63200;48.810;12.352;2024-01-11T07:44:02;59.23;;;18.60;;
74674;SDS011;63200;48.810;12.352;2024-01-11T07:46:28;61.63;;;20.07;;
74674;SDS011;63200;48.810;12.352;2024-01-11T07:48:54;55.93;;;19.03;;
74674;SDS011;63200;48.810;12.352;2024-01-11T07:51:19;64.90;;;19.37;;
74674;SDS011;63200;48.810;12.352;2024-01-11T07:53:45;54.07;;;20.13;;
74674;SDS011;63200;48.810;12.352;2024-01-11T07:56:10;58.53;;;20.03;;
74674;SDS011;63200;48.810;12.352;2024-01-11T07:58:35;26.50;;;10.57;;
74674;SDS011;63200;48.810;12.352;2024-01-11T08:01:02;50.50;;;17.70;;
74674;SDS011;63200;48.810;12.352;2024-01-11T08:03:29;61.73;;;22.30;;
74674;SDS011;63200;48.810;12.352;2024-01-11T08:05:54;58.83;;;21.53;;
74674;SDS011;63200;48.810;12.352;2024-01-11T08:08:20;61.10;;;20.60;;
74674;SDS011;63200;48.810;12.352;2024-01-11T08:10:47;61.50;;;20.83;;
74674;SDS011;63200;48.810;12.352;2024-01-11T08:13:12;61.53;;;20.97;;
74674;SDS011;63200;48.810;12.352;2024-01-11T08:15:38;57.73;;;21.33;;
74674;SDS011;63200;48.810;12.352;2024-01-11T08:18:03;70.40;;;24.37;;
74674;SDS011;63200;48.810;12.352;2024-01-11T08:20:30;69.37;;;24.70;;
74674;SDS011;63200;48.810;12.352;2024-01-11T08:22:55;72.97;;;25.07;;
74674;SDS011;63200;48.810;12.352;2024-01-11T08:25:21;67.57;;;24.77;;
74674;SDS011;63200;48.810;12.352;2024-01-11T08:27:47;67.07;;;24.80;;
74674;SDS011;63200;48.810;12.352;2024-01-11T08:30:13;60.33;;;23.13;;
74674;SDS011;63200;48.810;12.352;2024-01-11T08:32:38;64.80;;;23.97;;
74674;SDS011;63200;48.810;12.352;2024-01-11T08:35:05;63.43;;;24.47;;
74674;SDS011;63200;48.810;12.352;2024-01-11T08:37:31;66.00;;;24.47;;
74674;SDS011;63200;48.810;12.352;2024-01-11T08:39:57;58.77;;;25.53;;
74674;SDS011;63200;48.810;12.352;2024-01-11T08:42:22;59.73;;;24.13;;
74674;SDS011;63200;48.810;12.352;2024-01-11T08:44:48;62.90;;;25.30;;
74674;SDS011;63200;48.810;12.352;2024-01-11T08:47:13;63.33;;;25.80;;
74674;SDS011;63200;48.810;12.352;2024-01-11T08:49:39;58.63;;;23.57;;
74674;SDS011;63200;48.810;12.352;2024-01-11T08:52:04;61.20;;;25.70;;
74674;SDS011;63200;48.810;12.352;2024-01-11T08:54:30;58.70;;;25.03;;
74674;SDS011;63200;48.810;12.352;2024-01-11T08:56:57;64.43;;;26.43;;
74674;SDS011;63200;48.810;12.352;2024-01-11T08:59:23;58.67;;;27.08;;
74674;SDS011;63200;48.810;12.352;2024-01-11T09:01:50;60.53;;;26.17;;
74674;SDS011;63200;48.810;12.352;2024-01-11T09:04:15;57.63;;;24.95;;
74674;SDS011;63200;48.810;12.352;2024-01-11T09:06:42;56.13;;;25.13;;
74674;SDS011;63200;48.810;12.352;2024-01-11T09:09:08;65.32;;;26.00;;
74674;SDS011;63200;48.810;12.352;2024-01-11T09:11:35;61.33;;;26.63;;
74674;SDS011;63200;48.810;12.352;2024-01-11T09:14:00;62.53;;;25.90;;
74674;SDS011;63200;48.810;12.352;2024-01-11T09:16:28;61.85;;;26.05;;
74674;SDS011;63200;48.810;12.352;2024-01-11T09:18:53;60.35;;;25.67;;
74674;SDS011;63200;48.810;12.352;2024-01-11T09:21:19;56.97;;;24.65;;
74674;SDS011;63200;48.810;12.352;2024-01-11T09:23:44;58.40;;;25.23;;
74674;SDS011;63200;48.810;12.352;2024-01-11T09:26:10;61.85;;;25.88;;
74674;SDS011;63200;48.810;12.352;2024-01-11T09:28:35;57.10;;;25.87;;
74674;SDS011;63200;48.810;12.352;2024-01-11T09:31:01;55.83;;;24.50;;
74674;SDS011;63200;48.810;12.352;2024-01-11T09:33:27;62.57;;;25.70;;
74674;SDS011;63200;48.810;12.352;2024-01-11T09:35:53;62.13;;;25.98;;
74674;SDS011;63200;48.810;12.352;2024-01-11T09:38:19;64.07;;;27.27;;
74674;SDS011;63200;48.810;12.352;2024-01-11T09:40:44;57.40;;;25.17;;
74674;SDS011;63200;48.810;12.352;2024-01-11T09:43:10;57.90;;;26.13;;
74674;SDS011;63200;48.810;12.352;2024-01-11T09:45:35;61.70;;;26.92;;
74674;SDS011;63200;48.810;12.352;2024-01-11T09:48:02;61.22;;;24.42;;
74674;SDS011;63200;48.810;12.352;2024-01-11T09:50:31;58.90;;;26.57;;
74674;SDS011;63200;48.810;12.352;2024-01-11T09:52:57;61.63;;;26.17;;
74674;SDS011;63200;48.810;12.352;2024-01-11T09:55:23;62.92;;;26.85;;
74674;SDS011;63200;48.810;12.352;2024-01-11T09:57:48;62.00;;;26.58;;
74674;SDS011;63200;48.810;12.352;2024-01-11T10:00:22;67.45;;;26.98;;
74674;SDS011;63200;48.810;12.352;2024-01-11T10:02:48;64.75;;;27.67;;
74674;SDS011;63200;48.810;12.352;2024-01-11T10:05:15;67.57;;;27.80;;
74674;SDS011;63200;48.810;12.352;2024-01-11T10:07:42;60.83;;;26.52;;
74674;SDS011;63200;48.810;12.352;2024-01-11T10:10:07;60.83;;;27.38;;
74674;SDS011;63200;48.810;12.352;2024-01-11T10:12:36;58.58;;;25.15;;
74674;SDS011;63200;48.810;12.352;2024-01-11T10:15:08;62.20;;;26.80;;
74674;SDS011;63200;48.810;12.352;2024-01-11T10:17:44;54.65;;;25.52;;
74674;SDS011;63200;48.810;12.352;2024-01-11T10:20:11;62.95;;;27.00;;
74674;SDS011;63200;48.810;12.352;2024-01-11T10:22:38;63.53;;;26.77;;
74674;SDS011;63200;48.810;12.352;2024-01-11T10:27:36;59.53;;;26.90;;
74674;SDS011;63200;48.810;12.352;2024-01-11T10:30:02;60.97;;;27.10;;
74674;SDS011;63200;48.810;12.352;2024-01-11T10:32:28;62.70;;;28.00;;
74674;SDS011;63200;48.810;12.352;2024-01-11T10:34:53;59.92;;;28.02;;
74674;SDS011;63200;48.810;12.352;2024-01-11T10:37:19;63.30;;;28.13;;
74674;SDS011;63200;48.810;12.352;2024-01-11T10:39:47;61.15;;;27.88;;
74674;SDS011;63200;48.810;12.352;2024-01-11T10:42:15;63.15;;;28.42;;
74674;SDS011;63200;48.810;12.352;2024-01-11T10:44:47;58.38;;;27.92;;
74674;SDS011;63200;48.810;12.352;2024-01-11T10:47:17;61.90;;;28.20;;
74674;SDS011;63200;48.810;12.352;2024-01-11T10:49:44;58.58;;;29.00;;
74674;SDS011;63200;48.810;12.352;2024-01-11T10:52:14;62.75;;;28.63;;
74674;SDS011;63200;48.810;12.352;2024-01-11T10:54:46;60.28;;;27.92;;
74674;SDS011;63200;48.810;12.352;2024-01-11T10:57:13;60.17;;;27.05;;
74674;SDS011;63200;48.810;12.352;2024-01-11T10:59:39;62.20;;;29.48;;
74674;SDS011;63200;48.810;12.352;2024-01-11T11:02:06;57.85;;;27.52;;
74674;SDS011;63200;48.810;12.352;2024-01-11T11:04:36;65.18;;;28.92;;
74674;SDS011;63200;48.810;12.352;2024-01-11T11:07:03;64.00;;;28.63;;
74674;SDS011;63200;48.810;12.352;2024-01-11T11:09:32;61.85;;;28.50;;
74674;SDS011;63200;48.810;12.352;2024-01-11T11:12:00;63.25;;;28.25;;
74674;SDS011;63200;48.810;12.352;2024-01-11T11:14:27;57.75;;;26.15;;
74674;SDS011;63200;48.810;12.352;2024-01-11T11:16:53;61.08;;;27.52;;
74674;SDS011;63200;48.810;12.352;2024-01-11T11:19:19;60.35;;;28.55;;
74674;SDS011;63200;48.810;12.352;2024-01-11T11:21:46;59.70;;;26.50;;
74674;SDS011;63200;48.810;12.352;2024-01-11T11:24:12;58.00;;;27.92;;
74674;SDS011;63200;48.810;12.352;2024-01-11T11:26:38;60.03;;;27.25;;
74674;SDS011;63200;48.810;12.352;2024-01-11T11:29:03;59.30;;;28.23;;
74674;SDS011;63200;48.810;12.352;2024-01-11T11:31:36;66.60;;;28.80;;
74674;SDS011;63200;48.810;12.352;2024-01-11T11:34:11;64.78;;;28.17;;
74674;SDS011;63200;48.810;12.352;2024-01-11T11:36:36;67.25;;;27.95;;
74674;SDS011;63200;48.810;12.352;2024-01-11T11:39:02;55.45;;;24.50;;
74674;SDS011;63200;48.810;12.352;2024-01-11T11:41:29;64.90;;;26.50;;
74674;SDS011;63200;48.810;12.352;2024-01-11T11:44:00;62.53;;;25.40;;
74674;SDS011;63200;48.810;12.352;2024-01-11T11:46:25;60.10;;;25.67;;
74674;SDS011;63200;48.810;12.352;2024-01-11T11:48:51;68.83;;;29.37;;
74674;SDS011;63200;48.810;12.352;2024-01-11T11:51:18;71.33;;;30.03;;
74674;SDS011;63200;48.810;12.352;2024-01-11T11:53:45;70.93;;;30.07;;
74674;SDS011;63200;48.810;12.352;2024-01-11T11:56:11;65.00;;;28.00;;
74674;SDS011;63200;48.810;12.352;2024-01-11T11:58:37;82.10;;;35.63;;
74674;SDS011;63200;48.810;12.352;2024-01-11T12:01:04;78.80;;;32.63;;
74674;SDS011;63200;48.810;12.352;2024-01-11T12:03:30;76.80;;;29.20;;
74674;SDS011;63200;48.810;12.352;2024-01-11T12:06:02;68.00;;;28.63;;
74674;SDS011;63200;48.810;12.352;2024-01-11T12:08:28;73.43;;;28.73;;
74674;SDS011;63200;48.810;12.352;2024-01-11T12:10:54;74.90;;;28.20;;
74674;SDS011;63200;48.810;12.352;2024-01-11T12:13:19;68.40;;;26.13;;
74674;SDS011;63200;48.810;12.352;2024-01-11T12:15:45;67.13;;;27.57;;
74674;SDS011;63200;48.810;12.352;2024-01-11T12:18:11;63.33;;;26.53;;
74674;SDS011;63200;48.810;12.352;2024-01-11T12:20:36;60.67;;;26.27;;
74674;SDS011;63200;48.810;12.352;2024-01-11T12:23:02;65.43;;;26.60;;
74674;SDS011;63200;48.810;12.352;2024-01-11T12:25:28;62.27;;;26.80;;
74674;SDS011;63200;48.810;12.352;2024-01-11T12:27:57;68.37;;;26.90;;
74674;SDS011;63200;48.810;12.352;2024-01-11T12:30:23;64.97;;;26.97;;
74674;SDS011;63200;48.810;12.352;2024-01-11T12:32:49;66.50;;;27.00;;
74674;SDS011;63200;48.810;12.352;2024-01-11T12:35:15;69.13;;;26.83;;
74674;SDS011;63200;48.810;12.352;2024-01-11T12:37:51;70.70;;;26.80;;
74674;SDS011;63200;48.810;12.352;2024-01-11T12:40:31;64.93;;;25.80;;
74674;SDS011;63200;48.810;12.352;2024-01-11T12:42:59;67.57;;;27.27;;
74674;SDS011;63200;48.810;12.352;2024-01-11T12:45:25;69.70;;;27.57;;
74674;SDS011;63200;48.810;12.352;2024-01-11T12:47:51;66.90;;;28.23;;
74674;SDS011;63200;48.810;12.352;2024-01-11T12:50:17;64.97;;;27.17;;
74674;SDS011;63200;48.810;12.352;2024-01-11T12:52:42;64.43;;;27.75;;
74674;SDS011;63200;48.810;12.352;2024-01-11T12:55:16;65.67;;;26.17;;
74674;SDS011;63200;48.810;12.352;2024-01-11T12:57:43;64.10;;;26.40;;
74674;SDS011;63200;48.810;12.352;2024-01-11T13:00:15;61.50;;;25.57;;
74674;SDS011;63200;48.810;12.352;2024-01-11T13:02:41;61.65;;;25.52;;
74674;SDS011;63200;48.810;12.352;2024-01-11T13:05:11;62.10;;;25.13;;
74674;SDS011;63200;48.810;12.352;2024-01-11T13:07:36;61.20;;;24.60;;
74674;SDS011;63200;48.810;12.352;2024-01-11T13:10:02;56.47;;;24.60;;
74674;SDS011;63200;48.810;12.352;2024-01-11T13:12:29;57.40;;;23.73;;
74674;SDS011;63200;48.810;12.352;2024-01-11T13:14:54;59.03;;;25.35;;
74674;SDS011;63200;48.810;12.352;2024-01-11T13:17:20;58.28;;;25.25;;
74674;SDS011;63200;48.810;12.352;2024-01-11T13:19:46;59.65;;;25.58;;
74674;SDS011;63200;48.810;12.352;2024-01-11T13:22:11;59.47;;;24.98;;
74674;SDS011;63200;48.810;12.352;2024-01-11T13:24:36;62.67;;;26.40;;
74674;SDS011;63200;48.810;12.352;2024-01-11T13:27:02;56.40;;;23.67;;
74674;SDS011;63200;48.810;12.352;2024-01-11T13:29:28;62.43;;;26.90;;
74674;SDS011;63200;48.810;12.352;2024-01-11T13:31:53;62.53;;;26.05;;
74674;SDS011;63200;48.810;12.352;2024-01-11T13:34:18;65.57;;;27.03;;
74674;SDS011;63200;48.810;12.352;2024-01-11T13:36:44;65.10;;;25.73;;
74674;SDS011;63200;48.810;12.352;2024-01-11T13:39:09;57.33;;;24.97;;
74674;SDS011;63200;48.810;12.352;2024-01-11T13:41:35;54.93;;;21.50;;
74674;SDS011;63200;48.810;12.352;2024-01-11T13:44:01;56.97;;;23.30;;
74674;SDS011;63200;48.810;12.352;2024-01-11T13:46:26;57.17;;;23.43;;
74674;SDS011;63200;48.810;12.352;2024-01-11T13:48:52;45.70;;;18.93;;
74674;SDS011;63200;48.810;12.352;2024-01-11T13:51:18;46.50;;;18.33;;
74674;SDS011;63200;48.810;12.352;2024-01-11T13:53:43;40.87;;;16.30;;
74674;SDS011;63200;48.810;12.352;2024-01-11T13:56:08;65.07;;;25.90;;
74674;SDS011;63200;48.810;12.352;2024-01-11T13:58:35;62.47;;;25.00;;
74674;SDS011;63200;48.810;12.352;2024-01-11T14:01:01;58.83;;;24.60;;
74674;SDS011;63200;48.810;12.352;2024-01-11T14:03:26;61.43;;;24.93;;
74674;SDS011;63200;48.810;12.352;2024-01-11T14:05:52;60.73;;;23.97;;